»·PEaware :: ASA752 KSEA-KPDX

ASA752 :: KSEA-KPDX

FLIGHT INFORMATION

Flight Status: Arrived
Operator:
Alaska Airlines
More flights by this operator :: More flights under this callsign
Pilot: Austin C. (26034)
Aircraft: AIRBUS A319
(A319)
More flights by this aircraft type
Origin: KSEA Seattle-Tacoma Intl
United States
Destination: KPDX Portland Intl
United States
More flights between these airports :: More routes between these airports
Route: SEA7 SEA BUWZO KRATR2
File this flight plan on PilotEdge
Remarks: RMK / SIMBRIEF
Altitude:
(Current/Filed)
19,000ft
Speed:
(Current/Filed)
400kts
Departed: 25-Jan-21 09:42 PM
Arrived: 25-Jan-21 10:09 PM
Distance/Time
Traveled:
112nm/0:27
Distance/Time
To Go:
Arrived

Flight Plot

Page will automatically refresh every two minutes.

Flight plan parsing failed; only flown route is shown


Map Options




Map Legend


Flown Route
Filed Route
Departure Airport
Arrival Airport
Navaid (VOR, NDB)
Fix

Horizontal Profiles

Position Reports

Time Latitude Longitude Heading Altitude Ground
Speed
25-Jan-21 21:18 47.449464 -122.304089 133 435ft 0kts
25-Jan-21 21:19 47.449464 -122.304089 133 435ft 0kts
25-Jan-21 21:20 47.449464 -122.304089 133 435ft 0kts
25-Jan-21 21:21 47.449464 -122.304089 133 435ft 0kts
25-Jan-21 21:22 47.449464 -122.304089 133 435ft 0kts
25-Jan-21 21:23 47.449464 -122.304089 133 435ft 0kts
25-Jan-21 21:24 47.449464 -122.304089 133 435ft 0kts
25-Jan-21 21:25 47.449464 -122.304089 133 435ft 0kts
25-Jan-21 21:26 47.449464 -122.304089 133 435ft 0kts
25-Jan-21 21:27 47.449464 -122.304089 133 435ft 0kts
25-Jan-21 21:28 47.449464 -122.304089 133 435ft 0kts
25-Jan-21 21:29 47.449464 -122.304090 133 435ft 0kts
25-Jan-21 21:30 47.449464 -122.304090 133 435ft 0kts
25-Jan-21 21:31 47.449464 -122.304090 133 435ft 0kts
25-Jan-21 21:32 47.449661 -122.304266 169 435ft 2kts
25-Jan-21 21:33 47.450125 -122.303849 245 435ft 2kts
25-Jan-21 21:34 47.450174 -122.303707 242 435ft 0kts
25-Jan-21 21:35 47.450174 -122.303707 242 435ft 0kts
25-Jan-21 21:36 47.450163 -122.303736 242 435ft 1kts
25-Jan-21 21:37 47.451268 -122.306260 0 435ft 16kts
25-Jan-21 21:38 47.457423 -122.306202 1 435ft 24kts
25-Jan-21 21:39 47.463385 -122.306202 347 435ft 6kts
25-Jan-21 21:40 47.463635 -122.306423 300 435ft 3kts
25-Jan-21 21:42 47.442943 -122.307877 182 592ft 176kts
25-Jan-21 21:43 47.394586 -122.307205 180 3579ft 195kts
25-Jan-21 21:44 47.330753 -122.307031 180 6218ft 261kts
25-Jan-21 21:45 47.256420 -122.306118 181 9772ft 277kts
25-Jan-21 21:46 47.172018 -122.307171 181 12144ft 342kts
25-Jan-21 21:47 47.067970 -122.308176 181 14618ft 397kts
25-Jan-21 21:48 46.955182 -122.309217 181 17860ft 413kts
25-Jan-21 21:49 46.838543 -122.309218 181 18979ft 418kts
25-Jan-21 21:50 46.721929 -122.309220 180 18989ft 419kts
25-Jan-21 21:51 46.605236 -122.309232 181 18991ft 419kts
25-Jan-21 21:52 46.488576 -122.309276 181 18815ft 413kts
25-Jan-21 21:53 46.376583 -122.309313 180 14671ft 393kts
25-Jan-21 21:54 46.269576 -122.311263 187 12368ft 376kts
25-Jan-21 21:55 46.173980 -122.355272 202 10738ft 338kts
25-Jan-21 21:56 46.094175 -122.399946 201 10151ft 279kts
25-Jan-21 21:57 46.024843 -122.437448 201 9275ft 261kts
25-Jan-21 21:58 45.957202 -122.473856 201 8074ft 257kts
25-Jan-21 21:59 45.898491 -122.528750 222 6885ft 252kts
25-Jan-21 21:59 45.855713 -122.585005 226 5975ft 246kts
25-Jan-21 22:01 45.802599 -122.663063 226 4544ft 228kts
25-Jan-21 22:01 45.762717 -122.710154 205 3294ft 218kts
25-Jan-21 22:03 45.703013 -122.750805 205 2014ft 191kts
25-Jan-21 22:03 45.659845 -122.761132 171 1982ft 190kts
25-Jan-21 22:05 45.634975 -122.700578 115 1691ft 146kts
25-Jan-21 22:05 45.619353 -122.658461 118 1048ft 142kts
25-Jan-21 22:06 45.600201 -122.609395 118 247ft 141kts
25-Jan-21 22:07 45.585104 -122.570869 119 31ft 62kts
25-Jan-21 22:08 45.584572 -122.572620 298 30ft 23kts
25-Jan-21 22:09 45.588488 -122.582631 298 30ft 29kts
25-Jan-21 22:10 45.591362 -122.592155 298 31ft 26kts
25-Jan-21 22:11 45.591454 -122.599640 266 30ft 20kts
25-Jan-21 22:12 45.588080 -122.597949 119 30ft 16kts
25-Jan-21 22:13 45.588642 -122.596924 6 30ft 0kts
25-Jan-21 22:14 45.588642 -122.596924 6 30ft 0kts
25-Jan-21 22:15 45.588642 -122.596924 6 30ft 0kts
25-Jan-21 22:16 45.588642 -122.596924 6 30ft 0kts
25-Jan-21 22:17 45.588642 -122.596924 6 30ft 0kts

Navigation Log

Ident Type
Flight plan parsing failed, navigation log unavailable